Time;durP1;ratioP1;P1;durP2;ratioP2;P2;SDS_P1;SDS_P2;PMS_P1;PMS_P2;Temp;Humidity;BMP_temperature;BMP_pressure;BME280_temperature;BME280_humidity;BME280_pressure;Samples;Min_cycle;Max_cycle;Signal;HPM_P1;HPM_P2
2022/06/13 00:02:13;;;;;;;19.95;7.18;;;13.70;82.80;;;;;;5038119;28;20045;-81
2022/06/13 00:04:39;;;;;;;15.93;7.85;;;13.70;83.20;;;;;;5054774;28;20029;-79
2022/06/13 00:07:05;;;;;;;20.38;8.13;;;13.70;82.90;;;;;;5038223;28;20420;-79
2022/06/13 00:09:31;;;;;;;17.27;8.02;;;13.80;83.40;;;;;;5054383;28;20466;-80
2022/06/13 00:11:56;;;;;;;18.10;9.00;;;13.80;84.00;;;;;;5038008;28;20041;-81
2022/06/13 00:14:22;;;;;;;22.27;9.13;;;13.80;83.70;;;;;;5054297;28;20481;-80
2022/06/13 00:16:48;;;;;;;18.83;8.23;;;13.80;83.90;;;;;;5037457;28;20199;-81
2022/06/13 00:19:13;;;;;;;16.90;8.63;;;13.90;84.20;;;;;;5021107;28;20041;-80
2022/06/13 00:21:39;;;;;;;22.17;8.98;;;13.90;84.30;;;;;;5037543;28;20526;-79
2022/06/13 00:24:07;;;;;;;19.67;8.93;;;13.90;84.60;;;;;;5053966;28;20041;-80
2022/06/13 00:26:35;;;;;;;17.08;7.97;;;13.90;84.60;;;;;;5037499;28;20052;-81
2022/06/13 00:29:02;;;;;;;22.38;10.45;;;13.90;84.70;;;;;;5037766;28;20080;-81
2022/06/13 00:31:27;;;;;;;18.60;8.70;;;13.90;84.90;;;;;;5054199;28;20037;-80
2022/06/13 00:33:53;;;;;;;18.70;9.15;;;13.90;84.90;;;;;;5021070;28;20516;-80
2022/06/13 00:36:23;;;;;;;22.02;9.75;;;13.80;85.40;;;;;;5054079;28;20044;-80
2022/06/13 00:38:50;;;;;;;16.60;8.07;;;13.80;85.10;;;;;;5053987;28;20036;-81
2022/06/13 00:41:20;;;;;;;23.63;9.57;;;13.80;85.10;;;;;;5053779;28;20048;-80
2022/06/13 00:43:47;;;;;;;15.75;9.13;;;13.80;85.20;;;;;;5053803;28;20124;-80
2022/06/13 00:46:26;;;;;;;16.40;8.40;;;13.80;85.30;;;;;;5054277;28;20489;-81
2022/06/13 00:49:03;;;;;;;20.63;10.35;;;13.80;85.30;;;;;;5037163;28;20044;-80
2022/06/13 00:51:31;;;;;;;19.98;9.00;;;13.70;85.40;;;;;;5053769;28;20108;-81
2022/06/13 00:53:58;;;;;;;18.48;8.35;;;13.70;85.50;;;;;;5053733;28;20109;-80
2022/06/13 00:56:27;;;;;;;16.48;8.18;;;13.70;85.30;;;;;;5020448;28;20511;-80
2022/06/13 00:59:05;;;;;;;16.08;8.57;;;13.80;85.30;;;;;;5053296;28;20041;-80
2022/06/13 01:01:32;;;;;;;15.48;8.32;;;13.70;85.20;;;;;;5053827;28;20508;-80
2022/06/13 01:04:01;;;;;;;21.38;9.70;;;13.70;85.30;;;;;;5052770;28;20186;-80
2022/06/13 01:06:29;;;;;;;16.02;8.57;;;13.70;85.10;;;;;;5037200;28;20037;-80
2022/06/13 01:08:56;;;;;;;15.90;8.75;;;13.70;85.20;;;;;;5036589;28;20041;-80
2022/06/13 01:11:24;;;;;;;26.50;8.73;;;13.70;85.40;;;;;;5053276;28;20516;-79
2022/06/13 01:14:05;;;;;;;19.98;9.05;;;13.70;85.40;;;;;;5053104;28;20090;-80
2022/06/13 01:16:40;;;;;;;18.00;8.80;;;13.70;85.10;;;;;;5052980;28;20448;-79
2022/06/13 01:19:11;;;;;;;18.98;8.27;;;13.70;85.00;;;;;;5036404;28;20453;-81
2022/06/13 01:21:56;;;;;;;17.33;7.82;;;13.70;84.90;;;;;;5053005;28;20037;-80
2022/06/13 01:24:41;;;;;;;;;;;13.70;84.80;;;;;;5053604;28;20052;-80
2022/06/13 01:27:28;;;;;;;17.50;7.60;;;13.70;84.70;;;;;;5035813;28;20272;-80
2022/06/13 01:30:14;;;;;;;19.33;7.68;;;13.70;84.60;;;;;;5036577;28;20041;-80
2022/06/13 01:32:54;;;;;;;14.05;7.03;;;13.70;84.10;;;;;;5053694;28;20355;-80
2022/06/13 01:35:35;;;;;;;13.70;7.38;;;13.70;83.80;;;;;;5036522;28;20037;-80
2022/06/13 01:38:43;;;;;;;13.35;6.30;;;13.70;83.50;;;;;;5052695;28;20081;-81
2022/06/13 01:41:28;;;;;;;15.60;5.88;;;13.70;82.90;;;;;;5013212;28;20056;-80
2022/06/13 01:44:11;;;;;;;11.77;5.22;;;13.70;82.30;;;;;;5052968;28;20037;-80
2022/06/13 01:46:47;;;;;;;11.23;5.82;;;13.80;81.20;;;;;;5035889;28;20083;-80
2022/06/13 01:49:13;;;;;;;10.13;4.05;;;13.70;80.60;;;;;;5036172;28;20037;-79
2022/06/13 01:51:55;;;;;;;9.98;4.00;;;13.80;79.60;;;;;;5052415;28;20040;-80
2022/06/13 01:54:45;;;;;;;8.88;3.67;;;13.80;78.90;;;;;;5052692;28;20063;-80
2022/06/13 01:57:35;;;;;;;9.45;3.50;;;13.80;78.20;;;;;;5036622;28;20048;-80
2022/06/13 02:00:14;;;;;;;8.27;3.63;;;13.80;77.30;;;;;;5052388;28;20036;-81
2022/06/13 02:02:51;;;;;;;9.35;3.50;;;13.90;77.00;;;;;;5052503;28;20037;-80
2022/06/13 02:05:31;;;;;;;6.13;2.80;;;13.90;76.90;;;;;;5052638;28;20037;-80
2022/06/13 02:08:02;;;;;;;7.78;2.75;;;14.00;76.40;;;;;;5052676;28;20049;-80
2022/06/13 02:10:34;;;;;;;10.63;3.10;;;14.00;76.20;;;;;;5052368;28;20047;-80
2022/06/13 02:13:16;;;;;;;7.25;2.83;;;13.90;76.30;;;;;;5035990;28;20175;-81
2022/06/13 02:15:50;;;;;;;8.65;3.25;;;14.00;75.60;;;;;;5051959;28;20463;-79
2022/06/13 02:18:33;;;;;;;10.95;3.50;;;14.00;75.80;;;;;;5035651;28;20111;-79
2022/06/13 02:21:06;;;;;;;8.30;3.42;;;14.00;75.50;;;;;;5035661;28;20052;-80
2022/06/13 02:23:44;;;;;;;10.20;3.17;;;14.00;75.50;;;;;;5052593;28;20119;-80
2022/06/13 02:26:14;;;;;;;8.27;2.65;;;14.00;75.70;;;;;;5052409;28;20091;-80
2022/06/13 02:28:53;;;;;;;5.97;3.10;;;14.00;76.00;;;;;;5052074;28;20481;-80
2022/06/13 02:31:35;;;;;;;12.88;3.50;;;14.00;76.10;;;;;;5052798;28;20049;-80
2022/06/13 02:34:05;;;;;;;6.05;2.88;;;14.00;76.30;;;;;;5052089;28;20508;-80
2022/06/13 02:36:46;;;;;;;9.82;3.38;;;14.00;76.40;;;;;;5035343;28;20072;-80
2022/06/13 02:39:22;;;;;;;7.75;3.08;;;13.90;76.40;;;;;;5035512;28;20053;-80
2022/06/13 02:42:02;;;;;;;10.02;4.32;;;14.00;76.70;;;;;;5052269;28;20098;-81
2022/06/13 02:44:30;;;;;;;9.60;3.00;;;14.00;76.40;;;;;;5035638;28;20127;-79
2022/06/13 02:47:15;;;;;;;7.40;3.13;;;14.00;76.50;;;;;;5051802;28;20101;-80
2022/06/13 02:49:57;;;;;;;6.93;2.90;;;14.00;76.30;;;;;;5052236;28;20041;-81
2022/06/13 02:52:32;;;;;;;6.93;2.63;;;14.00;76.20;;;;;;5051736;28;20049;-80
2022/06/13 02:55:02;;;;;;;6.72;2.45;;;14.10;76.20;;;;;;5051890;28;20403;-81
2022/06/13 02:58:09;;;;;;;9.20;2.80;;;14.20;76.20;;;;;;5035235;28;20118;-80
2022/06/13 03:00:58;;;;;;;7.35;2.75;;;14.20;76.00;;;;;;5051882;28;20044;-81
2022/06/13 03:03:35;;;;;;;8.07;3.10;;;14.20;76.30;;;;;;5051715;28;20033;-81
2022/06/13 03:06:26;;;;;;;5.10;2.03;;;14.20;76.30;;;;;;5034916;28;20041;-80
2022/06/13 03:09:01;;;;;;;8.43;2.83;;;14.20;76.60;;;;;;5035259;28;20045;-80
2022/06/13 03:11:50;;;;;;;5.20;1.80;;;14.20;76.50;;;;;;5051768;28;20048;-80
2022/06/13 03:14:51;;;;;;;7.07;2.38;;;14.20;76.60;;;;;;5051255;28;20036;-80
2022/06/13 03:17:46;;;;;;;4.60;2.00;;;14.20;76.70;;;;;;5051031;28;20049;-81
2022/06/13 03:20:35;;;;;;;11.75;2.88;;;14.20;76.70;;;;;;5034953;28;20043;-80
2022/06/13 03:23:13;;;;;;;4.15;2.13;;;14.10;76.90;;;;;;5052136;28;20033;-79
2022/06/13 03:25:39;;;;;;;10.38;2.83;;;14.10;76.90;;;;;;5035231;28;20131;-81
2022/06/13 03:28:12;;;;;;;7.55;2.63;;;14.10;77.10;;;;;;5037263;28;20552;-80
2022/06/13 03:30:42;;;;;;;6.50;2.30;;;14.00;77.10;;;;;;5055454;28;20091;-80
2022/06/13 03:36:00;;;;;;;7.35;2.10;;;14.00;77.40;;;;;;5055518;28;20052;-79
2022/06/13 03:38:33;;;;;;;8.75;2.35;;;14.00;77.50;;;;;;5054914;28;20041;-82
2022/06/13 03:41:01;;;;;;;8.55;2.25;;;14.00;77.70;;;;;;5040984;28;20045;-80
2022/06/13 03:43:46;;;;;;;6.53;2.40;;;14.10;77.60;;;;;;5040698;28;20045;-79
2022/06/13 03:46:30;;;;;;;8.55;3.50;;;14.10;77.60;;;;;;5057530;28;20102;-79
2022/06/13 03:48:56;;;;;;;;;;;14.00;77.90;;;;;;5041594;28;20128;-80
2022/06/13 03:51:31;;;;;;;4.72;1.85;;;14.00;78.20;;;;;;5040874;28;19971;-80
2022/06/13 03:54:02;;;;;;;8.65;2.60;;;14.10;78.20;;;;;;5041767;28;20120;-79
2022/06/13 03:57:00;;;;;;;7.68;2.92;;;14.10;78.00;;;;;;5057358;28;20037;-79
2022/06/13 03:59:52;;;;;;;8.85;2.60;;;14.10;78.20;;;;;;5051235;28;20140;-79
2022/06/13 04:02:24;;;;;;;8.45;3.25;;;14.10;78.20;;;;;;5048249;28;20053;-80
2022/06/13 04:04:53;;;;;;;5.63;2.58;;;14.00;78.20;;;;;;5054518;28;20037;-81
2022/06/13 04:07:20;;;;;;;5.88;2.30;;;14.00;78.30;;;;;;5037798;28;20043;-80
2022/06/13 04:09:50;;;;;;;6.18;3.05;;;14.00;78.60;;;;;;5055066;28;20091;-80
2022/06/13 04:12:58;;;;;;;10.07;2.92;;;14.00;78.40;;;;;;5037981;28;20095;-80
2022/06/13 04:15:43;;;;;;;9.77;3.15;;;14.00;78.70;;;;;;5054441;28;20463;-80
2022/06/13 04:18:27;;;;;;;7.05;2.42;;;14.00;78.70;;;;;;5054147;28;20053;-80
2022/06/13 04:21:04;;;;;;;5.80;2.38;;;13.90;78.80;;;;;;5037876;28;20043;-80
2022/06/13 04:24:08;;;;;;;6.85;1.88;;;14.00;79.20;;;;;;5037448;28;20041;-80
2022/06/13 04:27:05;;;;;;;6.35;2.08;;;14.00;79.30;;;;;;4996942;28;20137;-80
2022/06/13 04:30:00;;;;;;;7.45;1.90;;;13.90;79.60;;;;;;5054513;28;20561;-81
2022/06/13 04:32:38;;;;;;;4.68;1.50;;;13.60;80.60;;;;;;5024462;28;20056;-80
2022/06/13 04:35:04;;;;;;;6.80;1.75;;;13.60;80.50;;;;;;5037628;28;20103;-80
2022/06/13 04:37:31;;;;;;;6.55;1.70;;;13.50;80.10;;;;;;5020645;28;20477;-79
2022/06/13 04:40:03;;;;;;;7.72;1.90;;;13.50;80.30;;;;;;5054276;28;20496;-80
2022/06/13 04:42:35;;;;;;;3.72;1.25;;;13.50;80.60;;;;;;5037407;28;20114;-80
2022/06/13 04:45:07;;;;;;;5.57;1.90;;;13.50;80.90;;;;;;5053771;28;20048;-83
2022/06/13 04:47:33;;;;;;;7.70;1.90;;;13.40;80.90;;;;;;5037267;28;20102;-81
2022/06/13 04:49:59;;;;;;;4.85;2.20;;;13.40;81.20;;;;;;5037014;28;20564;-80
2022/06/13 04:52:33;;;;;;;4.80;1.65;;;13.40;81.40;;;;;;5053598;28;20138;-80
2022/06/13 04:55:23;;;;;;;6.13;1.88;;;13.40;81.50;;;;;;5061173;28;20400;-80
2022/06/13 04:57:49;;;;;;;11.05;2.40;;;13.50;81.70;;;;;;5056733;28;20040;-80
2022/06/13 05:00:15;;;;;;;11.23;3.35;;;13.50;81.60;;;;;;5053526;28;20060;-82
2022/06/13 05:02:48;;;;;;;9.00;2.38;;;13.50;81.80;;;;;;5048275;28;20111;-81
2022/06/13 05:05:43;;;;;;;12.40;2.40;;;13.60;81.90;;;;;;5073212;28;20040;-80
2022/06/13 05:08:26;;;;;;;7.65;2.78;;;13.70;82.10;;;;;;5073366;28;20382;-80
2022/06/13 05:10:56;;;;;;;9.77;2.53;;;13.70;82.00;;;;;;5056521;28;20047;-80
2022/06/13 05:13:24;;;;;;;9.23;2.95;;;13.80;82.10;;;;;;5072983;28;20093;-79
2022/06/13 05:16:15;;;;;;;10.38;2.33;;;13.90;82.10;;;;;;5040382;28;20159;-81
2022/06/13 05:18:53;;;;;;;7.63;2.08;;;14.00;81.70;;;;;;5072805;28;20052;-81
2022/06/13 05:21:36;;;;;;;8.50;3.00;;;14.10;81.60;;;;;;5073036;28;20040;-80
2022/06/13 05:24:32;;;;;;;7.53;2.90;;;14.20;81.60;;;;;;5073119;28;20040;-80
2022/06/13 05:26:58;;;;;;;8.35;2.22;;;14.30;81.60;;;;;;5073005;28;20048;-82
2022/06/13 05:29:25;;;;;;;8.55;1.85;;;14.40;81.30;;;;;;5034429;28;20398;-82
2022/06/13 05:31:53;;;;;;;5.07;1.63;;;14.50;80.40;;;;;;5034538;28;20045;-79
2022/06/13 05:34:27;;;;;;;5.82;2.38;;;14.60;79.70;;;;;;5052730;28;20090;-80
2022/06/13 05:36:54;;;;;;;4.70;1.55;;;14.70;79.00;;;;;;5068450;28;20049;-80
2022/06/13 05:39:20;;;;;;;5.57;1.70;;;14.80;78.80;;;;;;5049548;28;20044;-80
2022/06/13 05:41:45;;;;;;;6.25;1.80;;;14.90;78.30;;;;;;5052659;28;20867;-80
2022/06/13 05:44:11;;;;;;;6.40;1.90;;;14.90;78.30;;;;;;5052178;28;20045;-80
2022/06/13 05:46:38;;;;;;;6.05;1.92;;;15.00;78.30;;;;;;5035703;28;20043;-80
2022/06/13 05:49:05;;;;;;;6.47;2.05;;;15.00;78.50;;;;;;5063620;28;20484;-78
2022/06/13 05:51:30;;;;;;;8.02;1.95;;;14.90;79.80;;;;;;5068898;28;20048;-80
2022/06/13 05:53:57;;;;;;;4.68;1.45;;;14.80;80.60;;;;;;5034641;28;20075;-82
2022/06/13 05:56:25;;;;;;;6.22;1.65;;;14.70;80.50;;;;;;5033843;28;20133;-80
2022/06/13 05:58:51;;;;;;;5.55;2.00;;;14.50;80.60;;;;;;5067153;28;20059;-81
2022/06/13 06:01:17;;;;;;;6.55;1.77;;;14.30;81.10;;;;;;5069101;28;20426;-82
2022/06/13 06:03:46;;;;;;;6.32;1.73;;;14.10;81.60;;;;;;5034759;28;20040;-82
2022/06/13 06:06:26;;;;;;;5.47;1.60;;;14.10;82.20;;;;;;5052030;28;20090;-82
2022/06/13 06:08:55;;;;;;;7.40;1.80;;;14.00;82.60;;;;;;5051912;28;20044;-81
2022/06/13 06:11:22;;;;;;;6.63;2.10;;;13.90;82.80;;;;;;5069415;28;20515;-81
2022/06/13 06:13:48;;;;;;;5.55;1.52;;;13.90;83.10;;;;;;5035754;28;20098;-81
2022/06/13 06:16:16;;;;;;;4.82;1.90;;;14.00;83.20;;;;;;5035179;28;20056;-80
2022/06/13 06:18:44;;;;;;;5.32;1.52;;;14.00;83.20;;;;;;5051236;28;20098;-81
2022/06/13 06:21:09;;;;;;;7.93;1.70;;;14.00;83.60;;;;;;5068991;28;20043;-81
2022/06/13 06:23:36;;;;;;;8.63;1.73;;;14.10;83.40;;;;;;5055307;28;20119;-81
2022/06/13 06:26:03;;;;;;;5.32;1.52;;;14.10;83.40;;;;;;5055798;28;20109;-81
2022/06/13 06:28:29;;;;;;;7.38;1.85;;;14.20;83.30;;;;;;5055342;28;20052;-80
2022/06/13 06:30:57;;;;;;;6.47;1.80;;;14.30;83.40;;;;;;5072110;28;20058;-80
2022/06/13 06:33:23;;;;;;;4.68;1.63;;;14.40;83.20;;;;;;5071996;28;20067;-80
2022/06/13 06:35:51;;;;;;;7.25;1.90;;;14.50;82.80;;;;;;5038660;28;20043;-80
2022/06/13 06:38:17;;;;;;;5.38;1.60;;;14.70;82.60;;;;;;5071499;28;20036;-80
2022/06/13 06:40:43;;;;;;;8.15;1.85;;;14.80;81.40;;;;;;5038793;28;20377;-80
2022/06/13 06:43:09;;;;;;;4.22;1.25;;;14.90;80.90;;;;;;5038104;28;20044;-79
2022/06/13 06:45:35;;;;;;;4.88;1.60;;;15.10;80.20;;;;;;5054763;28;20041;-80
2022/06/13 06:48:02;;;;;;;7.10;2.33;;;15.20;78.70;;;;;;5071547;28;20063;-80
2022/06/13 06:50:31;;;;;;;6.10;2.08;;;15.20;77.70;;;;;;5071350;28;20131;-79
2022/06/13 06:52:57;;;;;;;6.60;1.40;;;15.20;77.00;;;;;;5054838;28;20044;-79
2022/06/13 07:00:57;;;;;;;6.75;1.52;;;15.50;76.00;;;;;;5071583;28;20041;-79
2022/06/13 07:03:23;;;;;;;5.53;1.40;;;15.50;74.60;;;;;;5057645;28;20098;-79
2022/06/13 07:05:51;;;;;;;2.95;1.65;;;15.30;74.60;;;;;;5058411;28;20029;-79
2022/06/13 07:08:16;;;;;;;5.15;1.60;;;15.30;75.40;;;;;;5058563;28;20040;-79
2022/06/13 07:10:45;;;;;;;8.85;1.50;;;15.20;76.10;;;;;;5075025;28;20508;-79
2022/06/13 07:13:11;;;;;;;4.28;2.08;;;15.30;76.60;;;;;;5058154;28;20040;-79
2022/06/13 07:15:37;;;;;;;8.10;1.70;;;15.40;76.80;;;;;;5074950;28;20124;-79
2022/06/13 07:18:03;;;;;;;8.23;2.03;;;15.40;74.30;;;;;;5041491;28;20519;-77
2022/06/13 07:20:29;;;;;;;5.47;1.77;;;15.40;73.50;;;;;;5058395;28;20044;-77
2022/06/13 07:22:55;;;;;;;8.60;2.33;;;15.40;74.10;;;;;;5058235;28;20106;-78
2022/06/13 07:25:25;;;;;;;2.95;1.08;;;15.50;72.50;;;;;;5058057;28;20090;-78
2022/06/13 07:27:51;;;;;;;6.75;1.48;;;15.70;72.50;;;;;;5058180;28;20098;-79
2022/06/13 07:30:20;;;;;;;4.85;1.50;;;15.70;71.50;;;;;;5074873;28;20442;-79
2022/06/13 07:32:46;;;;;;;8.35;1.50;;;15.70;71.70;;;;;;5074842;28;20123;-79
2022/06/13 07:35:16;;;;;;;4.43;1.83;;;15.70;72.20;;;;;;5074492;28;20044;-79
2022/06/13 07:40:26;;;;;;;4.75;1.63;;;15.70;72.60;;;;;;5074482;28;20090;-79
2022/06/13 07:42:56;;;;;;;5.57;1.40;;;15.80;70.90;;;;;;5057734;28;20072;-78
2022/06/13 07:45:25;;;;;;;7.05;1.38;;;16.00;71.30;;;;;;5074538;28;20438;-77
2022/06/13 07:47:51;;;;;;;6.18;1.25;;;16.00;70.70;;;;;;5057475;28;20049;-79
2022/06/13 07:50:20;;;;;;;7.43;1.30;;;16.00;69.60;;;;;;5074222;28;20041;-78
2022/06/13 07:52:50;;;;;;;8.15;1.52;;;16.10;69.80;;;;;;5074130;28;20080;-79
2022/06/13 07:55:17;;;;;;;5.47;1.45;;;16.20;69.30;;;;;;5057852;28;20457;-79
2022/06/13 07:57:43;;;;;;;8.48;2.33;;;16.40;69.60;;;;;;5073885;28;20044;-79
2022/06/13 08:00:12;;;;;;;9.32;1.95;;;16.40;70.30;;;;;;5057319;28;20052;-79
2022/06/13 08:02:39;;;;;;;5.93;1.77;;;16.20;70.20;;;;;;5074247;28;20060;-79
2022/06/13 08:05:05;;;;;;;7.72;2.22;;;16.20;69.90;;;;;;5057516;28;20041;-79
2022/06/13 08:07:31;;;;;;;5.85;1.50;;;16.20;69.10;;;;;;5074008;28;20121;-79
2022/06/13 08:09:57;;;;;;;6.03;1.90;;;16.30;70.40;;;;;;5073785;28;20041;-79
2022/06/13 08:12:24;;;;;;;11.48;1.52;;;16.30;69.20;;;;;;5040528;28;20044;-79
2022/06/13 08:14:50;;;;;;;8.70;1.90;;;16.30;69.20;;;;;;5073711;28;20052;-77
2022/06/13 08:17:20;;;;;;;10.25;2.28;;;16.40;68.10;;;;;;5073539;28;20222;-78
2022/06/13 08:19:47;;;;;;;10.55;2.20;;;16.40;68.70;;;;;;5057120;28;20045;-77
2022/06/13 08:22:14;;;;;;;4.93;1.63;;;16.40;68.40;;;;;;5073544;28;20046;-77
2022/06/13 08:24:41;;;;;;;4.93;1.30;;;16.40;69.10;;;;;;5073793;28;20090;-79
2022/06/13 08:27:07;;;;;;;4.93;1.35;;;16.50;68.40;;;;;;5073523;28;20154;-77
2022/06/13 08:29:32;;;;;;;5.75;1.90;;;16.50;67.90;;;;;;5073508;28;20070;-78
2022/06/13 08:32:00;;;;;;;9.10;1.58;;;16.40;67.40;;;;;;5073463;28;20046;-77
2022/06/13 08:34:26;;;;;;;4.60;1.70;;;16.40;69.10;;;;;;5056993;28;20041;-77
2022/06/13 08:36:53;;;;;;;5.90;1.55;;;16.50;68.70;;;;;;5073547;28;21035;-78
2022/06/13 08:39:20;;;;;;;7.63;1.40;;;16.50;67.70;;;;;;5073235;28;20437;-78
2022/06/13 08:41:58;;;;;;;7.70;1.83;;;16.50;69.10;;;;;;5073205;28;20400;-78
2022/06/13 08:44:52;;;;;;;8.02;2.17;;;16.40;67.80;;;;;;5056808;28;20393;-78
2022/06/13 08:47:32;;;;;;;6.90;1.40;;;16.30;68.00;;;;;;5073092;28;20036;-77
2022/06/13 08:50:28;;;;;;;4.47;1.73;;;16.40;68.60;;;;;;5073108;28;20036;-79
2022/06/13 08:53:06;;;;;;;9.13;1.80;;;16.40;66.40;;;;;;5073322;28;20115;-77
2022/06/13 08:55:37;;;;;;;9.70;1.90;;;16.60;66.60;;;;;;5072988;28;20083;-77
2022/06/13 08:58:17;;;;;;;5.28;2.10;;;16.70;66.20;;;;;;5072780;28;20041;-78
2022/06/13 09:00:54;;;;;;;5.85;1.30;;;16.70;65.50;;;;;;5072881;28;20087;-78
2022/06/13 09:04:05;;;;;;;9.90;1.85;;;16.90;65.50;;;;;;5072892;28;20186;-76
2022/06/13 09:06:41;;;;;;;9.43;1.40;;;17.00;65.60;;;;;;5040909;28;20044;-78
2022/06/13 09:09:29;;;;;;;5.72;1.60;;;17.10;65.50;;;;;;5056100;28;20135;-78
2022/06/13 09:12:15;;;;;;;5.28;1.45;;;17.10;65.70;;;;;;5072603;28;20045;-78
2022/06/13 09:14:56;;;;;;;8.40;1.77;;;17.10;64.70;;;;;;5072640;28;20051;-78
2022/06/13 09:17:31;;;;;;;6.88;1.70;;;17.10;65.60;;;;;;5055550;28;20560;-77
2022/06/13 09:20:10;;;;;;;8.18;1.95;;;17.10;65.80;;;;;;5072607;28;20094;-77
2022/06/13 09:22:42;;;;;;;7.45;1.60;;;16.90;65.70;;;;;;5055872;28;20047;-77
2022/06/13 09:25:16;;;;;;;8.15;1.60;;;16.70;66.20;;;;;;5071899;28;20106;-78
2022/06/13 09:28:05;;;;;;;9.90;2.55;;;16.50;67.00;;;;;;5072343;28;20044;-76
2022/06/13 09:30:38;;;;;;;3.42;1.17;;;16.60;67.30;;;;;;5055230;28;20044;-78
2022/06/13 09:33:31;;;;;;;4.63;1.52;;;16.70;64.60;;;;;;5072272;28;20052;-78
2022/06/13 09:35:59;;;;;;;6.97;1.30;;;16.70;63.10;;;;;;5072265;28;20051;-78
2022/06/13 09:38:34;;;;;;;6.72;2.10;;;16.80;65.80;;;;;;5055400;28;20045;-78
2022/06/13 09:41:02;;;;;;;6.93;1.60;;;16.80;65.80;;;;;;5072261;28;20127;-77
2022/06/13 09:43:34;;;;;;;6.63;2.00;;;16.70;66.50;;;;;;5071925;28;20040;-78
2022/06/13 09:46:44;;;;;;;4.68;1.55;;;16.60;67.00;;;;;;5072353;28;20138;-79
2022/06/13 09:49:15;;;;;;;7.35;1.70;;;16.70;66.30;;;;;;5014639;28;20045;-78
2022/06/13 09:52:14;;;;;;;7.95;2.63;;;17.00;68.40;;;;;;5014736;28;20037;-79
2022/06/13 09:55:21;;;;;;;7.03;1.98;;;17.30;68.60;;;;;;5038681;28;20083;-78
2022/06/13 09:58:05;;;;;;;6.70;2.38;;;17.40;67.70;;;;;;5055046;28;20055;-78
2022/06/13 10:00:56;;;;;;;12.82;2.88;;;17.20;70.70;;;;;;5072168;28;20117;-78
2022/06/13 10:03:40;;;;;;;8.63;2.88;;;16.90;71.90;;;;;;5072101;28;20040;-78
2022/06/13 10:06:25;;;;;;;7.90;1.80;;;16.50;72.80;;;;;;5071819;28;20037;-78
2022/06/13 10:09:28;;;;;;;10.55;2.45;;;16.40;72.50;;;;;;5071837;28;20044;-78
2022/06/13 10:12:16;;;;;;;10.07;1.92;;;16.30;71.80;;;;;;5072023;28;20040;-78
2022/06/13 10:14:48;;;;;;;8.23;1.80;;;16.30;71.20;;;;;;5071581;28;20480;-78
2022/06/13 10:17:49;;;;;;;11.23;2.08;;;16.50;70.70;;;;;;5054624;28;20052;-78
2022/06/13 10:20:33;;;;;;;5.25;1.92;;;16.50;68.90;;;;;;5055258;28;20070;-77
2022/06/13 10:23:03;;;;;;;;;;;16.40;67.30;;;;;;5071979;28;20040;-77
2022/06/13 10:25:58;;;;;;;8.50;1.30;;;16.60;68.60;;;;;;5072123;28;19923;-78
2022/06/13 10:28:43;;;;;;;;;;;16.90;67.30;;;;;;5042598;28;20519;-77
2022/06/13 10:31:46;;;;;;;7.28;1.85;;;17.00;67.20;;;;;;5071623;28;19971;-78
2022/06/13 10:34:45;;;;;;;10.15;2.00;;;16.90;65.80;;;;;;5071810;28;20048;-78
2022/06/13 10:37:29;;;;;;;8.18;2.83;;;16.80;67.00;;;;;;5074576;28;20448;-78
2022/06/13 10:40:00;;;;;;;6.20;1.80;;;16.90;66.60;;;;;;5059206;28;20047;-77
2022/06/13 10:42:29;;;;;;;8.82;2.53;;;17.10;67.60;;;;;;5075853;28;20110;-77
2022/06/13 10:44:55;;;;;;;10.60;2.17;;;17.30;66.10;;;;;;5059015;28;20366;-77
2022/06/13 10:47:42;;;;;;;7.55;1.98;;;17.30;65.20;;;;;;5075401;28;20082;-77
2022/06/13 10:50:22;;;;;;;5.25;1.65;;;17.40;65.60;;;;;;5058660;28;20052;-77
2022/06/13 10:52:51;;;;;;;6.55;1.70;;;17.60;65.30;;;;;;5075638;28;20040;-76
2022/06/13 10:55:22;;;;;;;5.13;1.80;;;17.50;64.60;;;;;;5075342;28;20051;-78
2022/06/13 10:57:55;;;;;;;10.05;2.05;;;17.40;64.80;;;;;;5075157;28;20044;-76
2022/06/13 11:00:27;;;;;;;4.25;1.52;;;17.40;65.10;;;;;;5058810;28;20090;-78
2022/06/13 11:03:10;;;;;;;3.92;1.75;;;17.60;64.10;;;;;;5075314;28;20362;-77
2022/06/13 11:05:55;;;;;;;5.53;2.05;;;17.80;62.50;;;;;;5075135;28;20037;-76
2022/06/13 11:08:22;;;;;;;11.43;2.58;;;17.90;62.50;;;;;;5075121;28;20041;-78
2022/06/13 11:11:04;;;;;;;9.32;1.80;;;18.10;62.90;;;;;;5075238;28;20423;-78
2022/06/13 11:13:37;;;;;;;6.15;1.58;;;18.00;62.20;;;;;;5074998;28;20047;-78
2022/06/13 11:22:37;;;;;;;7.97;2.53;;;17.30;65.30;;;;;;5037125;28;20049;-78
2022/06/13 11:25:15;;;;;;;13.02;2.47;;;17.10;67.90;;;;;;5064054;28;20144;-78
2022/06/13 11:27:41;;;;;;;12.82;2.97;;;17.00;67.90;;;;;;5074556;28;20038;-78
2022/06/13 11:30:25;;;;;;;11.82;2.10;;;16.90;67.80;;;;;;5074681;28;20075;-78
2022/06/13 11:33:09;;;;;;;11.27;2.55;;;16.70;67.40;;;;;;5074631;28;20037;-78
2022/06/13 11:35:56;;;;;;;9.98;3.55;;;16.60;68.20;;;;;;5057921;28;20090;-77
2022/06/13 11:38:28;;;;;;;11.52;1.48;;;16.60;69.10;;;;;;5074477;28;20511;-78
2022/06/13 11:41:16;;;;;;;8.20;2.05;;;16.80;68.50;;;;;;5074478;28;20509;-77
2022/06/13 11:44:04;;;;;;;11.93;2.35;;;17.00;67.40;;;;;;5074397;28;20123;-78
2022/06/13 11:46:46;;;;;;;7.60;2.03;;;17.50;67.70;;;;;;5074331;28;20048;-78
2022/06/13 11:49:14;;;;;;;11.35;2.42;;;17.80;65.20;;;;;;5056760;28;20157;-78
2022/06/13 11:52:13;;;;;;;8.45;2.03;;;18.00;63.60;;;;;;5074244;28;20043;-78
2022/06/13 11:54:52;;;;;;;10.52;2.22;;;17.90;64.20;;;;;;5074209;28;20041;-78
2022/06/13 11:57:22;;;;;;;10.07;2.63;;;17.70;65.10;;;;;;5074041;28;20048;-77
2022/06/13 12:00:04;;;;;;;5.63;1.50;;;17.60;66.00;;;;;;5074449;28;20043;-77
2022/06/13 12:02:39;;;;;;;7.80;2.10;;;17.80;64.60;;;;;;5074041;28;20098;-78
2022/06/13 12:05:22;;;;;;;5.82;2.05;;;18.10;65.10;;;;;;5057553;28;20079;-78
2022/06/13 12:07:58;;;;;;;7.25;2.05;;;18.00;62.10;;;;;;5073949;28;20741;-78
2022/06/13 12:10:28;;;;;;;5.93;2.03;;;18.20;62.10;;;;;;5057274;28;20485;-78
2022/06/13 12:12:54;;;;;;;4.53;1.52;;;18.40;61.60;;;;;;5073917;28;20090;-77
2022/06/13 12:15:23;;;;;;;6.85;1.42;;;18.30;61.40;;;;;;5073924;28;20052;-78
2022/06/13 12:18:07;;;;;;;3.40;1.60;;;18.20;60.50;;;;;;5073420;28;20059;-79
2022/06/13 12:20:48;;;;;;;;;;;18.40;58.30;;;;;;5074209;28;20040;-77
2022/06/13 12:23:43;;;;;;;5.97;1.75;;;18.50;59.60;;;;;;5073689;28;19916;-79
2022/06/13 12:26:28;;;;;;;8.38;1.63;;;18.40;61.40;;;;;;5073601;28;20046;-79
2022/06/13 12:29:06;;;;;;;5.47;1.88;;;18.50;61.80;;;;;;5073551;28;20037;-79
2022/06/13 12:31:42;;;;;;;7.88;2.25;;;18.40;61.60;;;;;;5073508;28;20044;-79
2022/06/13 12:34:16;;;;;;;6.78;1.70;;;18.40;60.80;;;;;;5073822;28;20396;-78
2022/06/13 12:37:06;;;;;;;3.83;1.25;;;18.50;60.70;;;;;;5073352;28;20515;-77
2022/06/13 12:39:53;;;;;;;7.65;2.53;;;18.50;59.10;;;;;;5073361;28;20071;-78
2022/06/13 12:42:39;;;;;;;6.10;2.20;;;18.50;60.60;;;;;;5073599;28;20036;-78
2022/06/13 12:45:26;;;;;;;8.18;1.85;;;18.80;60.90;;;;;;5056607;28;20048;-77
2022/06/13 12:47:52;;;;;;;8.98;2.50;;;18.80;61.10;;;;;;5073365;28;20045;-79
2022/06/13 12:50:42;;;;;;;7.57;2.35;;;18.70;60.60;;;;;;5073128;28;20534;-78
2022/06/13 12:53:38;;;;;;;9.23;2.13;;;18.40;61.70;;;;;;5073037;28;20385;-77
2022/06/13 12:56:43;;;;;;;8.98;1.92;;;18.30;62.20;;;;;;5073064;28;20480;-78
2022/06/13 12:59:43;;;;;;;8.18;1.98;;;18.10;61.30;;;;;;5072269;28;20145;-77
2022/06/13 13:02:40;;;;;;;2.58;0.80;;;18.40;60.70;;;;;;5041213;28;20139;-78
2022/06/13 13:05:31;;;;;;;4.60;1.50;;;18.60;56.80;;;;;;5072762;28;20480;-78
2022/06/13 13:08:17;;;;;;;7.95;1.63;;;18.90;58.60;;;;;;5072993;28;20048;-78
2022/06/13 13:11:18;;;;;;;7.88;1.65;;;19.10;58.50;;;;;;5072979;28;20396;-78
2022/06/13 13:14:00;;;;;;;6.65;1.92;;;19.30;59.30;;;;;;5062494;28;20062;-79
2022/06/13 13:16:41;;;;;;;7.47;1.90;;;19.40;57.30;;;;;;5072472;28;20053;-78
2022/06/13 13:19:29;;;;;;;5.60;1.77;;;19.40;58.00;;;;;;5072496;28;20424;-78
2022/06/13 13:21:59;;;;;;;5.60;1.25;;;19.40;57.90;;;;;;5072556;28;20052;-78
2022/06/13 13:24:39;;;;;;;6.65;1.50;;;19.20;55.80;;;;;;5056223;28;20041;-78
2022/06/13 13:27:09;;;;;;;6.65;1.98;;;19.00;58.00;;;;;;5072587;28;20039;-77
2022/06/13 13:29:40;;;;;;;3.65;1.10;;;19.00;56.90;;;;;;5072834;28;20109;-77
2022/06/13 13:32:23;;;;;;;6.72;1.17;;;19.20;57.60;;;;;;5073108;28;20040;-77
2022/06/13 13:35:13;;;;;;;5.78;1.42;;;19.30;55.40;;;;;;5056047;28;20070;-78
2022/06/13 13:37:46;;;;;;;6.03;1.20;;;19.40;55.40;;;;;;5072910;28;20079;-77
2022/06/13 13:40:31;;;;;;;4.95;1.13;;;19.40;55.40;;;;;;5072429;28;20032;-77
2022/06/13 13:43:06;;;;;;;4.88;1.60;;;19.30;56.30;;;;;;5055519;28;20048;-79
2022/06/13 13:45:42;;;;;;;4.05;1.77;;;19.40;57.10;;;;;;5072457;28;20365;-78
2022/06/13 13:48:12;;;;;;;3.90;1.15;;;19.60;56.10;;;;;;5072056;28;20045;-78
2022/06/13 13:50:53;;;;;;;6.28;1.77;;;19.60;55.50;;;;;;5072075;28;20048;-77